sensor_id;sensor_type;location;lat;lon;timestamp;temperature;humidity
3792;DHT22;1911;53.768;11.474;2024-01-30T00:01:38;3.00;99.90
3792;DHT22;1911;53.768;11.474;2024-01-30T00:04:04;3.00;99.90
3792;DHT22;1911;53.768;11.474;2024-01-30T00:06:29;3.00;99.90
3792;DHT22;1911;53.768;11.474;2024-01-30T00:08:55;3.00;99.90
3792;DHT22;1911;53.768;11.474;2024-01-30T00:11:21;3.00;99.90
3792;DHT22;1911;53.768;11.474;2024-01-30T00:13:46;3.00;99.90
3792;DHT22;1911;53.768;11.474;2024-01-30T00:16:22;2.90;99.90
3792;DHT22;1911;53.768;11.474;2024-01-30T00:18:52;2.90;99.90
3792;DHT22;1911;53.768;11.474;2024-01-30T00:21:18;2.90;99.90
3792;DHT22;1911;53.768;11.474;2024-01-30T00:23:44;2.80;99.90
3792;DHT22;1911;53.768;11.474;2024-01-30T00:26:10;2.80;99.90
3792;DHT22;1911;53.768;11.474;2024-01-30T00:28:39;2.80;99.90
3792;DHT22;1911;53.768;11.474;2024-01-30T00:31:05;2.80;99.90
3792;DHT22;1911;53.768;11.474;2024-01-30T00:33:30;2.80;99.90
3792;DHT22;1911;53.768;11.474;2024-01-30T00:35:56;2.80;99.90
3792;DHT22;1911;53.768;11.474;2024-01-30T00:38:22;2.80;99.90
3792;DHT22;1911;53.768;11.474;2024-01-30T00:40:48;2.70;99.90
3792;DHT22;1911;53.768;11.474;2024-01-30T00:43:13;2.80;99.90
3792;DHT22;1911;53.768;11.474;2024-01-30T00:45:39;2.80;99.90
3792;DHT22;1911;53.768;11.474;2024-01-30T00:48:05;2.90;99.90
3792;DHT22;1911;53.768;11.474;2024-01-30T00:50:30;2.80;99.90
3792;DHT22;1911;53.768;11.474;2024-01-30T00:52:56;2.80;99.90
3792;DHT22;1911;53.768;11.474;2024-01-30T00:55:21;2.80;99.90
3792;DHT22;1911;53.768;11.474;2024-01-30T00:57:47;2.80;99.90
3792;DHT22;1911;53.768;11.474;2024-01-30T01:00:13;2.90;99.90
3792;DHT22;1911;53.768;11.474;2024-01-30T01:02:42;2.80;99.90
3792;DHT22;1911;53.768;11.474;2024-01-30T01:05:08;2.80;99.90
3792;DHT22;1911;53.768;11.474;2024-01-30T01:07:34;2.70;99.90
3792;DHT22;1911;53.768;11.474;2024-01-30T01:09:59;2.60;99.90
3792;DHT22;1911;53.768;11.474;2024-01-30T01:12:25;2.60;99.90
3792;DHT22;1911;53.768;11.474;2024-01-30T01:14:51;2.50;99.90
3792;DHT22;1911;53.768;11.474;2024-01-30T01:17:16;2.50;99.90
3792;DHT22;1911;53.768;11.474;2024-01-30T01:19:43;2.50;99.90
3792;DHT22;1911;53.768;11.474;2024-01-30T01:22:09;2.50;99.90
3792;DHT22;1911;53.768;11.474;2024-01-30T01:24:35;2.50;99.90
3792;DHT22;1911;53.768;11.474;2024-01-30T01:27:01;2.50;99.90
3792;DHT22;1911;53.768;11.474;2024-01-30T01:29:27;2.50;99.90
3792;DHT22;1911;53.768;11.474;2024-01-30T01:31:55;2.50;99.90
3792;DHT22;1911;53.768;11.474;2024-01-30T01:34:21;2.40;99.90
3792;DHT22;1911;53.768;11.474;2024-01-30T01:36:48;2.50;99.90
3792;DHT22;1911;53.768;11.474;2024-01-30T01:39:13;2.50;99.90
3792;DHT22;1911;53.768;11.474;2024-01-30T01:41:39;2.50;99.90
3792;DHT22;1911;53.768;11.474;2024-01-30T01:44:04;2.50;99.90
3792;DHT22;1911;53.768;11.474;2024-01-30T01:46:32;2.60;99.90
3792;DHT22;1911;53.768;11.474;2024-01-30T01:48:58;2.70;99.90
3792;DHT22;1911;53.768;11.474;2024-01-30T01:51:27;2.80;99.90
3792;DHT22;1911;53.768;11.474;2024-01-30T01:53:54;2.90;99.90
3792;DHT22;1911;53.768;11.474;2024-01-30T01:56:20;3.00;99.90
3792;DHT22;1911;53.768;11.474;2024-01-30T01:58:46;3.00;99.90
3792;DHT22;1911;53.768;11.474;2024-01-30T02:01:16;3.10;99.90
3792;DHT22;1911;53.768;11.474;2024-01-30T02:03:49;3.20;99.90
3792;DHT22;1911;53.768;11.474;2024-01-30T02:06:14;3.30;99.90
3792;DHT22;1911;53.768;11.474;2024-01-30T02:08:41;3.30;99.90
3792;DHT22;1911;53.768;11.474;2024-01-30T02:11:07;3.30;99.90
3792;DHT22;1911;53.768;11.474;2024-01-30T02:13:33;3.40;99.90
3792;DHT22;1911;53.768;11.474;2024-01-30T02:15:59;3.30;99.90
3792;DHT22;1911;53.768;11.474;2024-01-30T02:18:26;3.20;99.90
3792;DHT22;1911;53.768;11.474;2024-01-30T02:20:54;3.20;99.90
3792;DHT22;1911;53.768;11.474;2024-01-30T02:23:24;3.10;99.90
3792;DHT22;1911;53.768;11.474;2024-01-30T02:25:52;3.20;99.90
3792;DHT22;1911;53.768;11.474;2024-01-30T02:28:19;3.20;99.90
3792;DHT22;1911;53.768;11.474;2024-01-30T02:30:45;3.20;99.90
3792;DHT22;1911;53.768;11.474;2024-01-30T02:33:11;3.20;99.90
3792;DHT22;1911;53.768;11.474;2024-01-30T02:35:37;3.20;99.90
3792;DHT22;1911;53.768;11.474;2024-01-30T02:38:03;3.20;99.90
3792;DHT22;1911;53.768;11.474;2024-01-30T02:40:28;3.20;99.90
3792;DHT22;1911;53.768;11.474;2024-01-30T02:42:54;3.20;99.90
3792;DHT22;1911;53.768;11.474;2024-01-30T02:45:20;3.20;99.90
3792;DHT22;1911;53.768;11.474;2024-01-30T02:47:45;3.20;99.90
3792;DHT22;1911;53.768;11.474;2024-01-30T02:50:11;3.20;99.90
3792;DHT22;1911;53.768;11.474;2024-01-30T02:52:37;3.20;99.90
3792;DHT22;1911;53.768;11.474;2024-01-30T02:55:02;3.10;99.90
3792;DHT22;1911;53.768;11.474;2024-01-30T02:57:29;3.00;99.90
3792;DHT22;1911;53.768;11.474;2024-01-30T02:59:54;2.90;99.90
3792;DHT22;1911;53.768;11.474;2024-01-30T03:02:20;2.90;99.90
3792;DHT22;1911;53.768;11.474;2024-01-30T03:04:46;2.90;99.90
3792;DHT22;1911;53.768;11.474;2024-01-30T03:07:12;2.90;99.90
3792;DHT22;1911;53.768;11.474;2024-01-30T03:09:37;2.90;99.90
3792;DHT22;1911;53.768;11.474;2024-01-30T03:12:04;3.00;99.90
3792;DHT22;1911;53.768;11.474;2024-01-30T03:14:31;2.80;99.90
3792;DHT22;1911;53.768;11.474;2024-01-30T03:16:57;2.80;99.90
3792;DHT22;1911;53.768;11.474;2024-01-30T03:19:23;2.80;99.90
3792;DHT22;1911;53.768;11.474;2024-01-30T03:21:48;2.80;99.90
3792;DHT22;1911;53.768;11.474;2024-01-30T03:24:14;2.80;99.90
3792;DHT22;1911;53.768;11.474;2024-01-30T03:26:40;2.70;99.90
3792;DHT22;1911;53.768;11.474;2024-01-30T03:29:05;2.70;99.90
3792;DHT22;1911;53.768;11.474;2024-01-30T03:31:31;2.70;99.90
3792;DHT22;1911;53.768;11.474;2024-01-30T03:33:56;2.60;99.90
3792;DHT22;1911;53.768;11.474;2024-01-30T03:36:22;2.60;99.90
3792;DHT22;1911;53.768;11.474;2024-01-30T03:38:47;2.50;99.90
3792;DHT22;1911;53.768;11.474;2024-01-30T03:41:13;2.40;99.90
3792;DHT22;1911;53.768;11.474;2024-01-30T03:43:38;2.40;99.90
3792;DHT22;1911;53.768;11.474;2024-01-30T03:46:04;2.40;99.90
3792;DHT22;1911;53.768;11.474;2024-01-30T03:48:30;2.40;99.90
3792;DHT22;1911;53.768;11.474;2024-01-30T03:50:55;2.40;99.90
3792;DHT22;1911;53.768;11.474;2024-01-30T03:53:21;2.40;99.90
3792;DHT22;1911;53.768;11.474;2024-01-30T03:55:47;2.50;99.90
3792;DHT22;1911;53.768;11.474;2024-01-30T03:58:12;2.40;99.90
3792;DHT22;1911;53.768;11.474;2024-01-30T04:00:38;2.40;99.90
3792;DHT22;1911;53.768;11.474;2024-01-30T04:03:04;2.40;99.90
3792;DHT22;1911;53.768;11.474;2024-01-30T04:05:29;2.40;99.90
3792;DHT22;1911;53.768;11.474;2024-01-30T04:07:55;2.40;99.90
3792;DHT22;1911;53.768;11.474;2024-01-30T04:10:21;2.40;99.90
3792;DHT22;1911;53.768;11.474;2024-01-30T04:12:46;2.60;99.90
3792;DHT22;1911;53.768;11.474;2024-01-30T04:15:12;2.30;99.90
3792;DHT22;1911;53.768;11.474;2024-01-30T04:17:39;2.30;99.90
3792;DHT22;1911;53.768;11.474;2024-01-30T04:20:05;2.30;99.90
3792;DHT22;1911;53.768;11.474;2024-01-30T04:22:31;2.30;99.90
3792;DHT22;1911;53.768;11.474;2024-01-30T04:24:57;2.20;99.90
3792;DHT22;1911;53.768;11.474;2024-01-30T04:27:22;2.10;99.90
3792;DHT22;1911;53.768;11.474;2024-01-30T04:29:48;2.20;99.90
3792;DHT22;1911;53.768;11.474;2024-01-30T04:32:14;2.20;99.90
3792;DHT22;1911;53.768;11.474;2024-01-30T04:34:39;2.10;99.90
3792;DHT22;1911;53.768;11.474;2024-01-30T04:37:05;2.10;99.90
3792;DHT22;1911;53.768;11.474;2024-01-30T04:39:33;2.10;99.90
3792;DHT22;1911;53.768;11.474;2024-01-30T04:41:58;2.00;99.90
3792;DHT22;1911;53.768;11.474;2024-01-30T04:44:24;2.00;99.90
3792;DHT22;1911;53.768;11.474;2024-01-30T04:46:50;2.00;99.90
3792;DHT22;1911;53.768;11.474;2024-01-30T04:49:16;2.00;99.90
3792;DHT22;1911;53.768;11.474;2024-01-30T04:51:41;2.00;99.90
3792;DHT22;1911;53.768;11.474;2024-01-30T04:54:07;2.00;99.90
3792;DHT22;1911;53.768;11.474;2024-01-30T04:56:33;1.90;99.90
3792;DHT22;1911;53.768;11.474;2024-01-30T04:58:59;2.00;99.90
3792;DHT22;1911;53.768;11.474;2024-01-30T05:01:25;2.00;99.90
3792;DHT22;1911;53.768;11.474;2024-01-30T05:03:51;1.90;99.90
3792;DHT22;1911;53.768;11.474;2024-01-30T05:06:26;1.90;99.90
3792;DHT22;1911;53.768;11.474;2024-01-30T05:08:52;1.90;99.90
3792;DHT22;1911;53.768;11.474;2024-01-30T05:11:18;1.90;99.90
3792;DHT22;1911;53.768;11.474;2024-01-30T05:13:44;2.00;99.90
3792;DHT22;1911;53.768;11.474;2024-01-30T05:16:09;2.00;99.90
3792;DHT22;1911;53.768;11.474;2024-01-30T05:18:35;2.00;99.90
3792;DHT22;1911;53.768;11.474;2024-01-30T05:21:01;2.00;99.90
3792;DHT22;1911;53.768;11.474;2024-01-30T05:23:27;2.00;99.90
3792;DHT22;1911;53.768;11.474;2024-01-30T05:25:53;2.00;99.90
3792;DHT22;1911;53.768;11.474;2024-01-30T05:28:18;1.90;99.90
3792;DHT22;1911;53.768;11.474;2024-01-30T05:30:44;1.90;99.90
3792;DHT22;1911;53.768;11.474;2024-01-30T05:33:10;1.80;99.90
3792;DHT22;1911;53.768;11.474;2024-01-30T05:35:37;1.80;99.90
3792;DHT22;1911;53.768;11.474;2024-01-30T05:38:03;1.90;99.90
3792;DHT22;1911;53.768;11.474;2024-01-30T05:40:29;1.80;99.90
3792;DHT22;1911;53.768;11.474;2024-01-30T05:42:55;1.80;99.90
3792;DHT22;1911;53.768;11.474;2024-01-30T05:45:21;1.90;99.90
3792;DHT22;1911;53.768;11.474;2024-01-30T05:47:48;1.90;99.90
3792;DHT22;1911;53.768;11.474;2024-01-30T05:50:14;1.90;99.90
3792;DHT22;1911;53.768;11.474;2024-01-30T05:52:40;1.90;99.90
3792;DHT22;1911;53.768;11.474;2024-01-30T05:55:06;2.00;99.90
3792;DHT22;1911;53.768;11.474;2024-01-30T05:57:32;2.00;99.90
3792;DHT22;1911;53.768;11.474;2024-01-30T05:59:57;2.00;99.90
3792;DHT22;1911;53.768;11.474;2024-01-30T06:02:23;2.10;99.90
3792;DHT22;1911;53.768;11.474;2024-01-30T06:04:49;2.10;99.90
3792;DHT22;1911;53.768;11.474;2024-01-30T06:07:14;2.20;99.90
3792;DHT22;1911;53.768;11.474;2024-01-30T06:09:40;2.10;99.90
3792;DHT22;1911;53.768;11.474;2024-01-30T06:12:06;2.10;99.90
3792;DHT22;1911;53.768;11.474;2024-01-30T06:14:32;2.10;99.90
3792;DHT22;1911;53.768;11.474;2024-01-30T06:16:59;2.10;99.90
3792;DHT22;1911;53.768;11.474;2024-01-30T06:19:24;2.20;99.90
3792;DHT22;1911;53.768;11.474;2024-01-30T06:21:50;2.20;99.90
3792;DHT22;1911;53.768;11.474;2024-01-30T06:24:15;2.10;99.90
3792;DHT22;1911;53.768;11.474;2024-01-30T06:26:41;2.20;99.90
3792;DHT22;1911;53.768;11.474;2024-01-30T06:29:07;2.20;99.90
3792;DHT22;1911;53.768;11.474;2024-01-30T06:31:33;2.20;99.90
3792;DHT22;1911;53.768;11.474;2024-01-30T06:33:58;2.20;99.90
3792;DHT22;1911;53.768;11.474;2024-01-30T06:36:24;2.20;99.90
3792;DHT22;1911;53.768;11.474;2024-01-30T06:38:52;2.30;99.90
3792;DHT22;1911;53.768;11.474;2024-01-30T06:41:17;2.30;99.90
3792;DHT22;1911;53.768;11.474;2024-01-30T06:48:54;2.40;99.90
3792;DHT22;1911;53.768;11.474;2024-01-30T06:51:19;2.40;99.90
3792;DHT22;1911;53.768;11.474;2024-01-30T06:53:45;2.40;99.90
3792;DHT22;1911;53.768;11.474;2024-01-30T06:56:10;2.50;99.90
3792;DHT22;1911;53.768;11.474;2024-01-30T06:58:36;2.40;99.90
3792;DHT22;1911;53.768;11.474;2024-01-30T07:01:02;2.40;99.90
3792;DHT22;1911;53.768;11.474;2024-01-30T07:03:27;2.40;99.90
3792;DHT22;1911;53.768;11.474;2024-01-30T07:05:53;2.50;99.90
3792;DHT22;1911;53.768;11.474;2024-01-30T07:08:19;2.50;99.90
3792;DHT22;1911;53.768;11.474;2024-01-30T07:10:44;2.50;99.90
3792;DHT22;1911;53.768;11.474;2024-01-30T07:13:11;2.50;99.90
3792;DHT22;1911;53.768;11.474;2024-01-30T07:15:36;2.50;99.90
3792;DHT22;1911;53.768;11.474;2024-01-30T07:18:03;2.50;99.90
3792;DHT22;1911;53.768;11.474;2024-01-30T07:20:30;2.50;99.90
3792;DHT22;1911;53.768;11.474;2024-01-30T07:23:00;2.50;99.90
3792;DHT22;1911;53.768;11.474;2024-01-30T07:25:25;2.50;99.90
3792;DHT22;1911;53.768;11.474;2024-01-30T07:27:52;2.50;99.90
3792;DHT22;1911;53.768;11.474;2024-01-30T07:30:19;2.50;99.90
3792;DHT22;1911;53.768;11.474;2024-01-30T07:32:45;2.40;99.90
3792;DHT22;1911;53.768;11.474;2024-01-30T07:35:11;2.60;99.90
3792;DHT22;1911;53.768;11.474;2024-01-30T07:37:36;2.60;99.90
3792;DHT22;1911;53.768;11.474;2024-01-30T07:40:03;2.70;99.90
3792;DHT22;1911;53.768;11.474;2024-01-30T07:42:28;2.70;99.90
3792;DHT22;1911;53.768;11.474;2024-01-30T07:44:54;2.70;99.90
3792;DHT22;1911;53.768;11.474;2024-01-30T07:47:19;2.70;99.90
3792;DHT22;1911;53.768;11.474;2024-01-30T07:49:45;2.70;99.90
3792;DHT22;1911;53.768;11.474;2024-01-30T07:52:11;2.80;99.90
3792;DHT22;1911;53.768;11.474;2024-01-30T07:54:39;2.90;99.90
3792;DHT22;1911;53.768;11.474;2024-01-30T07:57:05;2.90;99.90
3792;DHT22;1911;53.768;11.474;2024-01-30T07:59:30;2.90;99.90
3792;DHT22;1911;53.768;11.474;2024-01-30T08:01:56;2.90;99.90
3792;DHT22;1911;53.768;11.474;2024-01-30T08:04:22;2.90;99.90
3792;DHT22;1911;53.768;11.474;2024-01-30T08:06:47;3.00;99.90
3792;DHT22;1911;53.768;11.474;2024-01-30T08:09:14;3.10;99.90
3792;DHT22;1911;53.768;11.474;2024-01-30T08:11:40;3.10;99.90
3792;DHT22;1911;53.768;11.474;2024-01-30T08:14:05;3.20;99.90
3792;DHT22;1911;53.768;11.474;2024-01-30T08:16:31;3.10;99.90
3792;DHT22;1911;53.768;11.474;2024-01-30T08:18:56;3.10;99.90
3792;DHT22;1911;53.768;11.474;2024-01-30T08:21:23;3.20;99.90
3792;DHT22;1911;53.768;11.474;2024-01-30T08:23:49;3.30;99.90
3792;DHT22;1911;53.768;11.474;2024-01-30T08:26:14;3.30;99.90
3792;DHT22;1911;53.768;11.474;2024-01-30T08:28:40;3.40;99.90
3792;DHT22;1911;53.768;11.474;2024-01-30T08:31:07;3.40;99.90
3792;DHT22;1911;53.768;11.474;2024-01-30T08:33:33;3.50;99.90
3792;DHT22;1911;53.768;11.474;2024-01-30T08:35:58;3.60;99.90
3792;DHT22;1911;53.768;11.474;2024-01-30T08:38:24;3.70;99.90
3792;DHT22;1911;53.768;11.474;2024-01-30T08:40:50;3.80;99.90
3792;DHT22;1911;53.768;11.474;2024-01-30T08:43:15;3.90;99.90
3792;DHT22;1911;53.768;11.474;2024-01-30T08:45:42;4.00;99.90
3792;DHT22;1911;53.768;11.474;2024-01-30T08:48:07;4.10;99.90
3792;DHT22;1911;53.768;11.474;2024-01-30T08:50:33;4.20;99.90
3792;DHT22;1911;53.768;11.474;2024-01-30T08:53:00;4.10;99.90
3792;DHT22;1911;53.768;11.474;2024-01-30T08:55:25;4.20;99.90
3792;DHT22;1911;53.768;11.474;2024-01-30T08:57:51;4.30;99.90
3792;DHT22;1911;53.768;11.474;2024-01-30T09:00:17;4.40;99.90
3792;DHT22;1911;53.768;11.474;2024-01-30T09:02:43;4.40;99.90
3792;DHT22;1911;53.768;11.474;2024-01-30T09:05:09;4.50;99.90
3792;DHT22;1911;53.768;11.474;2024-01-30T09:07:35;4.50;99.90
3792;DHT22;1911;53.768;11.474;2024-01-30T09:10:00;4.40;99.90
3792;DHT22;1911;53.768;11.474;2024-01-30T09:12:26;4.40;99.90
3792;DHT22;1911;53.768;11.474;2024-01-30T09:14:52;4.40;99.90
3792;DHT22;1911;53.768;11.474;2024-01-30T09:17:18;4.40;99.90
3792;DHT22;1911;53.768;11.474;2024-01-30T09:19:44;4.40;99.90
3792;DHT22;1911;53.768;11.474;2024-01-30T09:22:09;4.40;99.90
3792;DHT22;1911;53.768;11.474;2024-01-30T09:24:35;4.60;99.90
3792;DHT22;1911;53.768;11.474;2024-01-30T09:27:01;4.60;99.90
3792;DHT22;1911;53.768;11.474;2024-01-30T09:29:26;4.60;99.90
3792;DHT22;1911;53.768;11.474;2024-01-30T09:31:52;4.70;99.90
3792;DHT22;1911;53.768;11.474;2024-01-30T09:34:18;4.80;99.90
3792;DHT22;1911;53.768;11.474;2024-01-30T09:36:43;4.90;99.90
3792;DHT22;1911;53.768;11.474;2024-01-30T09:39:09;5.00;99.90
3792;DHT22;1911;53.768;11.474;2024-01-30T09:41:45;5.20;99.90
3792;DHT22;1911;53.768;11.474;2024-01-30T09:44:12;5.40;99.90
3792;DHT22;1911;53.768;11.474;2024-01-30T09:46:38;5.60;99.90
3792;DHT22;1911;53.768;11.474;2024-01-30T09:49:04;5.70;99.90
3792;DHT22;1911;53.768;11.474;2024-01-30T09:51:31;5.80;99.90
3792;DHT22;1911;53.768;11.474;2024-01-30T09:53:57;5.90;99.90
3792;DHT22;1911;53.768;11.474;2024-01-30T09:56:23;5.80;99.90
3792;DHT22;1911;53.768;11.474;2024-01-30T09:58:49;5.90;99.90
3792;DHT22;1911;53.768;11.474;2024-01-30T10:01:16;5.90;99.90
3792;DHT22;1911;53.768;11.474;2024-01-30T10:03:44;5.90;99.90
3792;DHT22;1911;53.768;11.474;2024-01-30T10:06:11;5.90;99.90
3792;DHT22;1911;53.768;11.474;2024-01-30T10:08:37;5.80;99.90
3792;DHT22;1911;53.768;11.474;2024-01-30T10:11:03;5.80;99.90
3792;DHT22;1911;53.768;11.474;2024-01-30T10:13:29;5.70;99.90
3792;DHT22;1911;53.768;11.474;2024-01-30T10:15:55;5.70;99.90
3792;DHT22;1911;53.768;11.474;2024-01-30T10:18:24;5.60;99.90
3792;DHT22;1911;53.768;11.474;2024-01-30T10:20:51;5.60;99.90
3792;DHT22;1911;53.768;11.474;2024-01-30T10:23:17;5.50;99.90
3792;DHT22;1911;53.768;11.474;2024-01-30T10:25:44;5.50;99.90
3792;DHT22;1911;53.768;11.474;2024-01-30T10:28:11;5.50;99.90
3792;DHT22;1911;53.768;11.474;2024-01-30T10:30:36;5.60;99.90
3792;DHT22;1911;53.768;11.474;2024-01-30T10:33:02;5.60;99.90
3792;DHT22;1911;53.768;11.474;2024-01-30T10:35:28;5.70;99.90
3792;DHT22;1911;53.768;11.474;2024-01-30T10:37:57;5.70;99.90
3792;DHT22;1911;53.768;11.474;2024-01-30T10:40:27;5.70;99.90
3792;DHT22;1911;53.768;11.474;2024-01-30T10:42:53;5.90;99.90
3792;DHT22;1911;53.768;11.474;2024-01-30T10:45:22;5.90;99.90
3792;DHT22;1911;53.768;11.474;2024-01-30T10:47:53;5.90;99.90
3792;DHT22;1911;53.768;11.474;2024-01-30T10:50:20;6.00;99.90
3792;DHT22;1911;53.768;11.474;2024-01-30T10:52:46;6.10;99.90
3792;DHT22;1911;53.768;11.474;2024-01-30T10:55:12;6.10;99.90
3792;DHT22;1911;53.768;11.474;2024-01-30T10:57:39;6.10;99.90
3792;DHT22;1911;53.768;11.474;2024-01-30T11:00:13;6.20;99.90
3792;DHT22;1911;53.768;11.474;2024-01-30T11:02:45;6.20;99.90
3792;DHT22;1911;53.768;11.474;2024-01-30T11:05:12;6.30;99.90
3792;DHT22;1911;53.768;11.474;2024-01-30T11:07:39;6.30;99.90
3792;DHT22;1911;53.768;11.474;2024-01-30T11:10:08;6.20;99.90
3792;DHT22;1911;53.768;11.474;2024-01-30T11:12:43;6.20;99.90
3792;DHT22;1911;53.768;11.474;2024-01-30T11:15:25;6.20;99.90
3792;DHT22;1911;53.768;11.474;2024-01-30T11:17:52;6.10;99.90
3792;DHT22;1911;53.768;11.474;2024-01-30T11:20:27;6.00;99.90
3792;DHT22;1911;53.768;11.474;2024-01-30T11:23:02;6.00;99.90
3792;DHT22;1911;53.768;11.474;2024-01-30T11:25:31;6.00;99.90
3792;DHT22;1911;53.768;11.474;2024-01-30T11:27:57;6.00;99.90
3792;DHT22;1911;53.768;11.474;2024-01-30T11:30:31;6.00;99.90
3792;DHT22;1911;53.768;11.474;2024-01-30T11:33:08;5.90;99.90
3792;DHT22;1911;53.768;11.474;2024-01-30T11:35:39;6.00;99.90
3792;DHT22;1911;53.768;11.474;2024-01-30T11:38:06;6.00;99.90
3792;DHT22;1911;53.768;11.474;2024-01-30T11:40:33;6.00;99.90
3792;DHT22;1911;53.768;11.474;2024-01-30T11:43:00;5.90;99.90
3792;DHT22;1911;53.768;11.474;2024-01-30T11:45:29;6.00;99.90
3792;DHT22;1911;53.768;11.474;2024-01-30T11:47:55;5.90;99.90
3792;DHT22;1911;53.768;11.474;2024-01-30T11:50:21;5.90;99.90
3792;DHT22;1911;53.768;11.474;2024-01-30T11:52:48;5.90;99.90
3792;DHT22;1911;53.768;11.474;2024-01-30T11:55:14;5.80;99.90
3792;DHT22;1911;53.768;11.474;2024-01-30T11:57:41;5.80;99.90
3792;DHT22;1911;53.768;11.474;2024-01-30T12:00:19;5.90;99.90
3792;DHT22;1911;53.768;11.474;2024-01-30T12:02:52;5.90;99.90
3792;DHT22;1911;53.768;11.474;2024-01-30T12:05:22;6.00;99.90
3792;DHT22;1911;53.768;11.474;2024-01-30T12:07:47;6.10;99.90
3792;DHT22;1911;53.768;11.474;2024-01-30T12:10:14;6.20;99.90
3792;DHT22;1911;53.768;11.474;2024-01-30T12:12:44;6.20;99.90
3792;DHT22;1911;53.768;11.474;2024-01-30T12:15:11;6.20;99.90
3792;DHT22;1911;53.768;11.474;2024-01-30T12:17:36;6.20;99.90
3792;DHT22;1911;53.768;11.474;2024-01-30T12:20:13;6.20;99.90
3792;DHT22;1911;53.768;11.474;2024-01-30T12:22:40;6.30;99.90
3792;DHT22;1911;53.768;11.474;2024-01-30T12:25:10;6.40;99.90
3792;DHT22;1911;53.768;11.474;2024-01-30T12:27:39;6.30;99.90
3792;DHT22;1911;53.768;11.474;2024-01-30T12:30:11;6.30;99.90
3792;DHT22;1911;53.768;11.474;2024-01-30T12:32:39;6.40;99.90
3792;DHT22;1911;53.768;11.474;2024-01-30T12:35:12;6.40;99.90
3792;DHT22;1911;53.768;11.474;2024-01-30T12:37:38;6.50;99.90
3792;DHT22;1911;53.768;11.474;2024-01-30T12:40:05;6.50;99.90
3792;DHT22;1911;53.768;11.474;2024-01-30T12:42:31;6.60;99.90
3792;DHT22;1911;53.768;11.474;2024-01-30T12:45:00;6.60;99.90
3792;DHT22;1911;53.768;11.474;2024-01-30T12:47:27;6.60;99.90
3792;DHT22;1911;53.768;11.474;2024-01-30T12:49:52;6.70;99.90
3792;DHT22;1911;53.768;11.474;2024-01-30T12:52:21;6.70;99.90
3792;DHT22;1911;53.768;11.474;2024-01-30T12:54:48;6.70;99.90
3792;DHT22;1911;53.768;11.474;2024-01-30T12:57:14;6.70;99.90
3792;DHT22;1911;53.768;11.474;2024-01-30T12:59:39;6.70;99.90
3792;DHT22;1911;53.768;11.474;2024-01-30T13:02:06;6.70;99.90
3792;DHT22;1911;53.768;11.474;2024-01-30T13:04:32;6.80;99.90
3792;DHT22;1911;53.768;11.474;2024-01-30T13:06:58;6.80;99.90
3792;DHT22;1911;53.768;11.474;2024-01-30T13:09:24;6.80;99.90
3792;DHT22;1911;53.768;11.474;2024-01-30T13:11:50;6.90;99.90
3792;DHT22;1911;53.768;11.474;2024-01-30T13:14:17;6.90;99.90
3792;DHT22;1911;53.768;11.474;2024-01-30T13:16:43;6.80;99.90
3792;DHT22;1911;53.768;11.474;2024-01-30T13:19:08;6.80;99.90
3792;DHT22;1911;53.768;11.474;2024-01-30T13:21:34;6.70;99.90
3792;DHT22;1911;53.768;11.474;2024-01-30T13:24:00;6.60;99.90
3792;DHT22;1911;53.768;11.474;2024-01-30T13:26:26;6.50;99.90
3792;DHT22;1911;53.768;11.474;2024-01-30T13:28:51;6.40;99.90
3792;DHT22;1911;53.768;11.474;2024-01-30T13:31:17;6.30;99.90
3792;DHT22;1911;53.768;11.474;2024-01-30T13:33:43;6.10;99.90
3792;DHT22;1911;53.768;11.474;2024-01-30T13:36:10;6.00;99.90
3792;DHT22;1911;53.768;11.474;2024-01-30T13:38:37;6.00;99.90
3792;DHT22;1911;53.768;11.474;2024-01-30T13:41:03;6.10;99.90
3792;DHT22;1911;53.768;11.474;2024-01-30T13:43:29;6.30;99.90
3792;DHT22;1911;53.768;11.474;2024-01-30T13:45:55;6.40;99.90
3792;DHT22;1911;53.768;11.474;2024-01-30T13:48:20;6.50;99.90
3792;DHT22;1911;53.768;11.474;2024-01-30T13:50:47;6.50;99.90
3792;DHT22;1911;53.768;11.474;2024-01-30T13:53:13;6.50;99.90
3792;DHT22;1911;53.768;11.474;2024-01-30T13:55:38;6.50;99.90
3792;DHT22;1911;53.768;11.474;2024-01-30T13:58:05;6.50;99.90
3792;DHT22;1911;53.768;11.474;2024-01-30T14:00:31;6.60;99.90
3792;DHT22;1911;53.768;11.474;2024-01-30T14:02:57;6.70;99.90
3792;DHT22;1911;53.768;11.474;2024-01-30T14:05:24;6.70;99.90
3792;DHT22;1911;53.768;11.474;2024-01-30T14:07:51;6.80;99.90
3792;DHT22;1911;53.768;11.474;2024-01-30T14:10:17;6.80;99.90
3792;DHT22;1911;53.768;11.474;2024-01-30T14:12:43;6.80;99.90
3792;DHT22;1911;53.768;11.474;2024-01-30T14:15:09;6.80;99.90
3792;DHT22;1911;53.768;11.474;2024-01-30T14:17:35;6.90;99.90
3792;DHT22;1911;53.768;11.474;2024-01-30T14:20:05;7.00;99.90
3792;DHT22;1911;53.768;11.474;2024-01-30T14:22:31;7.00;99.90
3792;DHT22;1911;53.768;11.474;2024-01-30T14:24:57;7.00;99.90
3792;DHT22;1911;53.768;11.474;2024-01-30T14:27:22;7.00;99.90
3792;DHT22;1911;53.768;11.474;2024-01-30T14:29:48;7.00;99.90
3792;DHT22;1911;53.768;11.474;2024-01-30T14:32:14;7.10;99.90
3792;DHT22;1911;53.768;11.474;2024-01-30T14:34:39;7.10;99.90
3792;DHT22;1911;53.768;11.474;2024-01-30T14:37:05;7.20;99.90
3792;DHT22;1911;53.768;11.474;2024-01-30T14:39:31;7.20;99.90
3792;DHT22;1911;53.768;11.474;2024-01-30T14:41:57;7.20;99.90
3792;DHT22;1911;53.768;11.474;2024-01-30T14:44:23;7.20;99.90
3792;DHT22;1911;53.768;11.474;2024-01-30T14:46:49;7.20;99.90
3792;DHT22;1911;53.768;11.474;2024-01-30T14:49:15;7.20;99.90
3792;DHT22;1911;53.768;11.474;2024-01-30T14:51:41;7.20;99.90
3792;DHT22;1911;53.768;11.474;2024-01-30T14:54:07;7.30;99.90
3792;DHT22;1911;53.768;11.474;2024-01-30T14:56:35;7.40;99.90
3792;DHT22;1911;53.768;11.474;2024-01-30T14:59:03;7.30;99.90
3792;DHT22;1911;53.768;11.474;2024-01-30T17:39:26;7.30;99.90
3792;DHT22;1911;53.768;11.474;2024-01-30T17:49:20;6.90;99.90
3792;DHT22;1911;53.768;11.474;2024-01-30T18:09:48;7.70;99.90
3792;DHT22;1911;53.768;11.474;2024-01-30T18:13:03;6.20;99.90
3792;DHT22;1911;53.768;11.474;2024-01-30T18:43:52;6.80;99.90
3792;DHT22;1911;53.768;11.474;2024-01-30T19:24:07;6.80;99.90
3792;DHT22;1911;53.768;11.474;2024-01-30T19:26:33;6.80;99.90
3792;DHT22;1911;53.768;11.474;2024-01-30T19:28:59;6.90;99.90
3792;DHT22;1911;53.768;11.474;2024-01-30T19:31:24;6.80;99.90
3792;DHT22;1911;53.768;11.474;2024-01-30T19:33:50;7.00;99.90
3792;DHT22;1911;53.768;11.474;2024-01-30T19:36:16;7.00;99.90
3792;DHT22;1911;53.768;11.474;2024-01-30T19:38:44;7.10;99.90
3792;DHT22;1911;53.768;11.474;2024-01-30T19:41:14;7.30;99.90
3792;DHT22;1911;53.768;11.474;2024-01-30T19:43:40;7.40;99.90
3792;DHT22;1911;53.768;11.474;2024-01-30T19:46:13;7.40;99.90
3792;DHT22;1911;53.768;11.474;2024-01-30T19:48:41;7.40;99.90
3792;DHT22;1911;53.768;11.474;2024-01-30T19:51:09;7.40;99.90
3792;DHT22;1911;53.768;11.474;2024-01-30T19:53:36;7.40;99.90
3792;DHT22;1911;53.768;11.474;2024-01-30T19:56:05;7.80;99.90
3792;DHT22;1911;53.768;11.474;2024-01-30T19:58:33;7.50;99.90
3792;DHT22;1911;53.768;11.474;2024-01-30T20:01:00;7.50;99.90
3792;DHT22;1911;53.768;11.474;2024-01-30T20:03:28;7.50;99.90
3792;DHT22;1911;53.768;11.474;2024-01-30T20:05:56;7.80;99.90
3792;DHT22;1911;53.768;11.474;2024-01-30T20:08:24;7.90;99.90
3792;DHT22;1911;53.768;11.474;2024-01-30T20:10:50;8.10;99.90
3792;DHT22;1911;53.768;11.474;2024-01-30T20:13:16;8.00;99.90